AirNav   Pilot Hours Calculator
 
 1232 users online  

PA95 Turnpike Heliport Nr 1
Harrisburg, Pennsylvania, USA

GOING TO HARRISBURG?


FAA INFORMATION EFFECTIVE 05 DECEMBER 2019

Location

FAA Identifier: PA95
Lat/Long: 40-13-00.3270N 076-46-58.8940W
40-13.005450N 076-46.981567W
40.2167575,-76.7830261
(estimated)
Elevation: 348 ft. / 106 m (estimated)
Variation: 10W (1985)
From city: 1 mile N of HARRISBURG, PA
Time zone: UTC -5 (UTC -4 during Daylight Saving Time)
Zip code: 17057

Heliport Operations

Heliport use: Private use. Permission required prior to landing
Activation date: 01/1976
Control tower: no
ARTCC: NEW YORK CENTER
FSS: WILLIAMSPORT FLIGHT SERVICE STATION
Attendance: UNATNDD
Wind indicator: lighted
Segmented circle: no

Heliport Communications

WX ASOS at MDT (1.7 nm SE): PHONE 717-944-1372
WX ASOS at CXY (3 nm W): PHONE 717-770-0880
WX ASOS at MUI (16 nm NE): 124.175 (717-861-2536)
WX ASOS at THV (18 nm S): 119.275 (717-792-5529)

Nearby radio navigation aids

VOR radial/distance  VOR name  Freq  Var
HARr121/14.1HARRISBURG VORTAC112.5010W
RAVr214/21.9RAVINE VORTAC114.6011W
LRPr293/23.3LANCASTER VOR/DME117.3009W
SEGr180/34.8SELINSGROVE VOR/DME110.4008W

 
NDB name  Hdg/Dist  Freq  Var  ID
ENOLA119/5.720411WMD -- -..
LATLE088/10.521911WCX -.-. -..-
BELLGROVE229/16.832810WBZJ -... --.. .---

Heliport Services

Runway Information

Helipad H1

Dimensions: 65 x 65 ft. / 20 x 20 m
Surface: concrete, in fair condition
Latitude: 40-13.005450N
Longitude: 076-46.981567W
Elevation: 348.0 ft.
Traffic pattern: leftleft
Markings: basic, in good condition

Heliport Ownership and Management from official FAA records

Ownership: Privately-owned
Owner: PA. TURNPIKE COMSN.
PO BOX 8531
HARRISBURG, PA 17105
Phone 717-939-9551
Manager: L. KEITH. JACK
700 S. EISENHOWER BLVD
MIDDLETOWN, PA 17057
Phone 717-939-9551

Additional Remarks

A52-H1 LIGHT 3 FT HIGH AT NORTHEAST CORNER OF FATO.
ARR/DEPT PATHS, 280/100 DEG FM THE EAST, 110/290 DEG FM THE WEST.
FOR CD CTC HARRISBURG APCH AT 800-932-0712.

Instrument Procedures

There are no published instrument procedures at PA95.

Some nearby airports with instrument procedures:

KMDT - Harrisburg International Airport (2 nm SE)
KCXY - Capital City Airport (3 nm W)
58N - Reigle Field Airport (10 nm NE)
N71 - Donegal Springs Airpark (12 nm SE)
KMUI - Muir Army Airfield (Fort Indiantown Gap) (16 nm NE)
N94 - Carlisle Airport (18 nm W)
KTHV - York Airport (18 nm S)
 
Loc | Ops | Rwys | IFR | FBO | Links
Com | Nav | Svcs | Stats | Notes
Area around PA95 (Turnpike Heliport Nr 1)
 
Road maps at: MapQuest Bing Google
 
Aerial photo
No photo
 
Sectional chart

 
Airport distance calculator
Flying to Turnpike Heliport Nr 1? Find the distance to fly.

From to PA95

Sunrise and sunset
Times for 07-Dec-2019
 Local
(UTC-5)
 Zulu
(UTC)
Morning civil twilight06:4711:47
Sunrise07:1712:17
Sunset16:4021:40
Evening civil twilight17:1122:11

Current date and time
Zulu (UTC)  08-Dec-2019 02:38:40
Local (UTC-5)  07-Dec-2019 21:38:40
 
METAR
KMDT 080156Z 00000KT 10SM FEW250 M02/M07 A3046 RMK AO2 SLP318 T10221072
KCXY 
3nm W 
080156Z 24003KT 10SM CLR M02/M08 A3046 RMK AO2 SLP322 T10221078
KMUI 
16nm NE 
080156Z AUTO 00000KT 10SM CLR M04/M08 A3045 RMK AO2 SLP320 T10361076
KTHV 
19nm S 
080153Z AUTO 00000KT 10SM CLR M06/M08 A3045 RMK AO2 SLP320 T10611083
TAF
KMDT 072140Z 0722/0818 33008KT P6SM SKC FM081500 14007G15KT P6SM BKN250
KMUI 
16nm NE 
071900Z 0719/0901 VRB06KT 9999 FEW120 QNH3036INS BECMG 0814/0815 17010G15KT 9999 FEW200 QNH3031INS BECMG 0819/0820 17006KT 9999 FEW180 QNH3032INS TX06/0817Z TNM05/0811Z LAST NO AMDS AFT 0805 NEXT 0811
NOTAMs
Click for the latest NOTAMs
NOTAMs are issued by the DoD/FAA and will open in a separate window not controlled by AirNav.

 

 
 

Would you like to see your business listed on this page?

 If your business provides an interesting product or service to pilots, flight crews, aircraft, or users of the Turnpike Heliport Nr 1, you should consider listing it here.  To start the listing process, click on the button below
 
Add a business
 

Other Pages about Turnpike Heliport Nr 1

Update a link
 
Copyright © AirNav, LLC. All rights reserved. Privacy Policy  Contact